sensor_id;sensor_type;location;lat;lon;timestamp;pressure;altitude;pressure_sealevel;temperature;humidity
44934;BME280;30667;43.614;1.442;2023-01-28T00:00:33;100472.25;;;3.17;100.00
44934;BME280;30667;43.614;1.442;2023-01-28T00:02:58;100474.69;;;3.19;100.00
44934;BME280;30667;43.614;1.442;2023-01-28T00:05:24;100472.66;;;3.21;100.00
44934;BME280;30667;43.614;1.442;2023-01-28T00:07:50;100470.19;;;3.19;100.00
44934;BME280;30667;43.614;1.442;2023-01-28T00:10:15;100464.00;;;3.19;100.00
44934;BME280;30667;43.614;1.442;2023-01-28T00:12:41;100471.22;;;3.18;100.00
44934;BME280;30667;43.614;1.442;2023-01-28T00:15:07;100467.72;;;3.18;100.00
44934;BME280;30667;43.614;1.442;2023-01-28T00:17:34;100470.63;;;3.16;100.00
44934;BME280;30667;43.614;1.442;2023-01-28T00:20:01;100465.06;;;3.18;100.00
44934;BME280;30667;43.614;1.442;2023-01-28T00:22:27;100463.63;;;3.15;100.00
44934;BME280;30667;43.614;1.442;2023-01-28T00:24:52;100470.00;;;3.14;100.00
44934;BME280;30667;43.614;1.442;2023-01-28T00:27:18;100465.50;;;3.15;100.00
44934;BME280;30667;43.614;1.442;2023-01-28T00:29:43;100468.16;;;3.15;100.00
44934;BME280;30667;43.614;1.442;2023-01-28T00:32:08;100468.97;;;3.15;100.00
44934;BME280;30667;43.614;1.442;2023-01-28T00:34:34;100471.06;;;3.13;100.00
44934;BME280;30667;43.614;1.442;2023-01-28T00:36:59;100461.97;;;3.14;100.00
44934;BME280;30667;43.614;1.442;2023-01-28T00:39:26;100462.81;;;3.15;100.00
44934;BME280;30667;43.614;1.442;2023-01-28T00:41:52;100462.59;;;3.16;100.00
44934;BME280;30667;43.614;1.442;2023-01-28T00:44:19;100464.44;;;3.16;100.00
44934;BME280;30667;43.614;1.442;2023-01-28T00:46:45;100465.28;;;3.16;100.00
44934;BME280;30667;43.614;1.442;2023-01-28T00:49:10;100454.56;;;3.16;100.00
44934;BME280;30667;43.614;1.442;2023-01-28T00:51:36;100440.38;;;3.16;100.00
44934;BME280;30667;43.614;1.442;2023-01-28T00:54:02;100441.63;;;3.13;100.00
44934;BME280;30667;43.614;1.442;2023-01-28T00:56:28;100435.66;;;3.11;100.00
44934;BME280;30667;43.614;1.442;2023-01-28T00:58:53;100444.53;;;3.12;100.00
44934;BME280;30667;43.614;1.442;2023-01-28T01:01:22;100443.47;;;3.13;100.00
44934;BME280;30667;43.614;1.442;2023-01-28T01:03:48;100445.13;;;3.14;100.00
44934;BME280;30667;43.614;1.442;2023-01-28T01:06:22;100460.56;;;3.12;100.00
44934;BME280;30667;43.614;1.442;2023-01-28T01:08:48;100449.66;;;3.13;100.00
44934;BME280;30667;43.614;1.442;2023-01-28T01:11:15;100456.84;;;3.13;100.00
44934;BME280;30667;43.614;1.442;2023-01-28T01:13:41;100448.00;;;3.12;100.00
44934;BME280;30667;43.614;1.442;2023-01-28T01:16:09;100450.91;;;3.11;100.00
44934;BME280;30667;43.614;1.442;2023-01-28T01:18:36;100447.41;;;3.10;100.00
44934;BME280;30667;43.614;1.442;2023-01-28T01:21:14;100457.06;;;3.11;100.00
44934;BME280;30667;43.614;1.442;2023-01-28T01:23:41;100451.13;;;3.09;100.00
44934;BME280;30667;43.614;1.442;2023-01-28T01:26:06;100456.25;;;3.11;100.00
44934;BME280;30667;43.614;1.442;2023-01-28T01:28:32;100456.25;;;3.11;100.00
44934;BME280;30667;43.614;1.442;2023-01-28T01:31:03;100443.09;;;3.09;100.00
44934;BME280;30667;43.614;1.442;2023-01-28T01:33:29;100443.94;;;3.09;100.00
44934;BME280;30667;43.614;1.442;2023-01-28T01:35:56;100448.06;;;3.05;100.00
44934;BME280;30667;43.614;1.442;2023-01-28T01:38:21;100454.22;;;3.06;100.00
44934;BME280;30667;43.614;1.442;2023-01-28T01:40:47;100457.94;;;3.05;100.00
44934;BME280;30667;43.614;1.442;2023-01-28T01:43:20;100455.88;;;3.07;100.00
44934;BME280;30667;43.614;1.442;2023-01-28T01:45:58;100457.53;;;3.08;100.00
44934;BME280;30667;43.614;1.442;2023-01-28T01:48:30;100459.56;;;3.06;100.00
44934;BME280;30667;43.614;1.442;2023-01-28T01:51:05;100458.53;;;3.07;100.00
44934;BME280;30667;43.614;1.442;2023-01-28T01:53:36;100458.34;;;3.08;100.00
44934;BME280;30667;43.614;1.442;2023-01-28T01:56:09;100461.00;;;3.08;100.00
44934;BME280;30667;43.614;1.442;2023-01-28T01:58:38;100468.22;;;3.08;100.00
44934;BME280;30667;43.614;1.442;2023-01-28T02:01:06;100464.69;;;3.07;100.00
44934;BME280;30667;43.614;1.442;2023-01-28T02:03:54;100460.19;;;3.08;100.00
44934;BME280;30667;43.614;1.442;2023-01-28T02:06:22;100463.69;;;3.08;100.00
44934;BME280;30667;43.614;1.442;2023-01-28T02:08:48;100462.88;;;3.08;100.00
44934;BME280;30667;43.614;1.442;2023-01-28T02:11:13;100454.84;;;3.08;100.00
44934;BME280;30667;43.614;1.442;2023-01-28T02:13:44;100462.88;;;3.08;100.00
44934;BME280;30667;43.614;1.442;2023-01-28T02:16:11;100458.34;;;3.08;100.00
44934;BME280;30667;43.614;1.442;2023-01-28T02:18:38;100461.00;;;3.08;100.00
44934;BME280;30667;43.614;1.442;2023-01-28T02:29:29;100472.72;;;3.07;100.00
44934;BME280;30667;43.614;1.442;2023-01-28T02:32:09;100481.59;;;3.08;100.00
44934;BME280;30667;43.614;1.442;2023-01-28T02:34:50;100486.72;;;3.09;100.00
44934;BME280;30667;43.614;1.442;2023-01-28T02:37:28;100488.75;;;3.07;100.00
44934;BME280;30667;43.614;1.442;2023-01-28T02:40:02;100483.19;;;3.09;100.00
44934;BME280;30667;43.614;1.442;2023-01-28T02:42:35;100485.06;;;3.08;100.00
44934;BME280;30667;43.614;1.442;2023-01-28T02:45:02;100480.75;;;3.07;100.00
44934;BME280;30667;43.614;1.442;2023-01-28T02:47:28;100478.28;;;3.06;100.00
44934;BME280;30667;43.614;1.442;2023-01-28T02:50:14;100481.78;;;3.06;100.00
44934;BME280;30667;43.614;1.442;2023-01-28T02:58:46;100478.06;;;3.07;100.00
44934;BME280;30667;43.614;1.442;2023-01-28T03:01:38;100481.78;;;3.06;100.00
44934;BME280;30667;43.614;1.442;2023-01-28T03:04:27;100478.91;;;3.08;100.00
44934;BME280;30667;43.614;1.442;2023-01-28T03:06:57;100487.53;;;3.10;100.00
44934;BME280;30667;43.614;1.442;2023-01-28T03:09:25;100489.38;;;3.09;100.00
44934;BME280;30667;43.614;1.442;2023-01-28T03:11:58;100491.00;;;3.11;100.00
44934;BME280;30667;43.614;1.442;2023-01-28T03:14:47;100495.53;;;3.10;100.00
44934;BME280;30667;43.614;1.442;2023-01-28T03:23:47;100496.56;;;3.09;100.00
44934;BME280;30667;43.614;1.442;2023-01-28T03:29:44;100505.66;;;3.08;100.00
44934;BME280;30667;43.614;1.442;2023-01-28T03:32:31;100501.31;;;3.07;100.00
44934;BME280;30667;43.614;1.442;2023-01-28T03:35:17;100500.28;;;3.08;100.00
44934;BME280;30667;43.614;1.442;2023-01-28T03:38:03;100488.75;;;3.07;100.00
44934;BME280;30667;43.614;1.442;2023-01-28T03:40:54;100500.28;;;3.08;100.00
44934;BME280;30667;43.614;1.442;2023-01-28T03:43:20;100490.63;;;3.07;100.00
44934;BME280;30667;43.614;1.442;2023-01-28T03:45:47;100502.34;;;3.06;100.00
44934;BME280;30667;43.614;1.442;2023-01-28T03:48:23;100498.66;;;3.07;100.00
44934;BME280;30667;43.614;1.442;2023-01-28T03:50:49;100498.66;;;3.07;100.00
44934;BME280;30667;43.614;1.442;2023-01-28T03:53:16;100488.97;;;3.06;100.00
44934;BME280;30667;43.614;1.442;2023-01-28T03:55:42;100501.53;;;3.05;100.00
44934;BME280;30667;43.614;1.442;2023-01-28T03:58:09;100504.00;;;3.07;100.00
44934;BME280;30667;43.614;1.442;2023-01-28T04:00:35;100505.22;;;3.04;100.00
44934;BME280;30667;43.614;1.442;2023-01-28T04:03:10;100506.50;;;3.02;100.00
44934;BME280;30667;43.614;1.442;2023-01-28T04:05:45;100505.22;;;3.04;100.00
44934;BME280;30667;43.614;1.442;2023-01-28T04:08:12;100502.56;;;3.04;100.00
44934;BME280;30667;43.614;1.442;2023-01-28T04:10:39;100503.41;;;3.05;100.00
44934;BME280;30667;43.614;1.442;2023-01-28T04:13:05;100504.44;;;3.04;100.00
44934;BME280;30667;43.614;1.442;2023-01-28T04:15:31;100496.41;;;3.04;100.00
44934;BME280;30667;43.614;1.442;2023-01-28T04:17:56;100498.88;;;3.05;100.00
44934;BME280;30667;43.614;1.442;2023-01-28T04:20:22;100504.22;;;3.05;100.00
44934;BME280;30667;43.614;1.442;2023-01-28T04:22:47;100501.75;;;3.04;100.00
44934;BME280;30667;43.614;1.442;2023-01-28T04:25:13;100507.91;;;3.04;100.00
44934;BME280;30667;43.614;1.442;2023-01-28T04:27:38;100512.22;;;3.05;100.00
44934;BME280;30667;43.614;1.442;2023-01-28T04:30:04;100515.94;;;3.04;100.00
44934;BME280;30667;43.614;1.442;2023-01-28T04:32:30;100515.94;;;3.04;100.00
44934;BME280;30667;43.614;1.442;2023-01-28T04:34:56;100516.75;;;3.05;100.00
44934;BME280;30667;43.614;1.442;2023-01-28T04:37:21;100520.25;;;3.05;100.00
44934;BME280;30667;43.614;1.442;2023-01-28T04:39:46;100523.72;;;3.06;100.00
44934;BME280;30667;43.614;1.442;2023-01-28T04:42:12;100528.69;;;3.02;100.00
44934;BME280;30667;43.614;1.442;2023-01-28T04:44:38;100533.03;;;3.03;100.00
44934;BME280;30667;43.614;1.442;2023-01-28T04:47:03;100525.22;;;3.02;100.00
44934;BME280;30667;43.614;1.442;2023-01-28T04:49:29;100535.91;;;3.02;100.00
44934;BME280;30667;43.614;1.442;2023-01-28T04:51:54;100532.59;;;3.00;100.00
44934;BME280;30667;43.614;1.442;2023-01-28T04:54:19;100536.94;;;3.01;100.00
44934;BME280;30667;43.614;1.442;2023-01-28T04:56:45;100535.91;;;3.02;100.00
44934;BME280;30667;43.614;1.442;2023-01-28T04:59:10;100539.59;;;3.01;100.00
44934;BME280;30667;43.614;1.442;2023-01-28T05:01:36;100549.69;;;2.99;100.00
44934;BME280;30667;43.614;1.442;2023-01-28T05:04:01;100542.72;;;2.98;100.00
44934;BME280;30667;43.614;1.442;2023-01-28T05:06:30;100541.25;;;2.95;100.00
44934;BME280;30667;43.614;1.442;2023-01-28T05:08:56;100547.66;;;2.94;100.00
44934;BME280;30667;43.614;1.442;2023-01-28T05:11:22;100548.47;;;2.95;100.00
44934;BME280;30667;43.614;1.442;2023-01-28T05:13:47;100537.78;;;2.95;100.00
44934;BME280;30667;43.614;1.442;2023-01-28T05:16:13;100547.66;;;2.94;100.00
44934;BME280;30667;43.614;1.442;2023-01-28T05:18:38;100560.59;;;2.97;100.00
44934;BME280;30667;43.614;1.442;2023-01-28T05:21:04;100554.88;;;2.94;100.00
44934;BME280;30667;43.614;1.442;2023-01-28T05:23:29;100553.81;;;2.95;100.00
44934;BME280;30667;43.614;1.442;2023-01-28T05:25:54;100559.38;;;2.93;100.00
44934;BME280;30667;43.614;1.442;2023-01-28T05:28:20;100568.25;;;2.94;100.00
44934;BME280;30667;43.614;1.442;2023-01-28T05:30:45;100566.81;;;2.91;100.00
44934;BME280;30667;43.614;1.442;2023-01-28T05:33:10;100567.81;;;2.90;100.00
44934;BME280;30667;43.614;1.442;2023-01-28T05:35:36;100565.78;;;2.92;100.00
44934;BME280;30667;43.614;1.442;2023-01-28T05:38:02;100570.28;;;2.91;100.00
44934;BME280;30667;43.614;1.442;2023-01-28T05:40:27;100568.66;;;2.90;100.00
44934;BME280;30667;43.614;1.442;2023-01-28T05:42:53;100566.00;;;2.90;100.00
44934;BME280;30667;43.614;1.442;2023-01-28T05:45:18;100570.50;;;2.90;100.00
44934;BME280;30667;43.614;1.442;2023-01-28T05:47:43;100569.69;;;2.89;100.00
44934;BME280;30667;43.614;1.442;2023-01-28T05:50:12;100570.28;;;2.91;100.00
44934;BME280;30667;43.614;1.442;2023-01-28T05:52:37;100568.88;;;2.89;100.00
44934;BME280;30667;43.614;1.442;2023-01-28T05:55:03;100573.38;;;2.88;100.00
44934;BME280;30667;43.614;1.442;2023-01-28T05:57:29;100574.22;;;2.89;100.00
44934;BME280;30667;43.614;1.442;2023-01-28T05:59:54;100578.31;;;2.91;100.00
44934;BME280;30667;43.614;1.442;2023-01-28T06:02:19;100578.31;;;2.91;100.00
44934;BME280;30667;43.614;1.442;2023-01-28T06:04:45;100581.41;;;2.88;100.00
44934;BME280;30667;43.614;1.442;2023-01-28T06:07:10;100575.25;;;2.88;100.00
44934;BME280;30667;43.614;1.442;2023-01-28T06:09:37;100580.38;;;2.89;100.00
44934;BME280;30667;43.614;1.442;2023-01-28T06:12:03;100585.72;;;2.89;100.00
44934;BME280;30667;43.614;1.442;2023-01-28T06:14:28;100584.91;;;2.89;100.00
44934;BME280;30667;43.614;1.442;2023-01-28T06:16:54;100593.75;;;2.89;100.00
44934;BME280;30667;43.614;1.442;2023-01-28T06:19:19;100592.09;;;2.88;100.00
44934;BME280;30667;43.614;1.442;2023-01-28T06:21:44;100594.16;;;2.86;100.00
44934;BME280;30667;43.614;1.442;2023-01-28T06:24:10;100592.50;;;2.85;100.00
44934;BME280;30667;43.614;1.442;2023-01-28T06:26:36;100601.97;;;2.88;100.00
44934;BME280;30667;43.614;1.442;2023-01-28T06:29:01;100605.88;;;2.85;100.00
44934;BME280;30667;43.614;1.442;2023-01-28T06:31:27;100602.41;;;2.85;100.00
44934;BME280;30667;43.614;1.442;2023-01-28T06:33:52;100601.38;;;2.86;100.00
44934;BME280;30667;43.614;1.442;2023-01-28T06:36:17;100607.75;;;2.85;100.00
44934;BME280;30667;43.614;1.442;2023-01-28T06:38:43;100606.09;;;2.84;100.00
44934;BME280;30667;43.614;1.442;2023-01-28T06:41:08;100614.94;;;2.84;100.00
44934;BME280;30667;43.614;1.442;2023-01-28T06:43:34;100607.13;;;2.83;100.00
44934;BME280;30667;43.614;1.442;2023-01-28T06:45:59;100613.91;;;2.85;100.00
44934;BME280;30667;43.614;1.442;2023-01-28T06:48:25;100614.09;;;2.84;100.00
44934;BME280;30667;43.614;1.442;2023-01-28T06:50:51;100615.38;;;2.81;100.00
44934;BME280;30667;43.614;1.442;2023-01-28T06:53:18;100614.31;;;2.82;100.00
44934;BME280;30667;43.614;1.442;2023-01-28T06:55:43;100619.44;;;2.84;100.00
44934;BME280;30667;43.614;1.442;2023-01-28T06:58:09;100618.03;;;2.81;100.00
44934;BME280;30667;43.614;1.442;2023-01-28T07:00:35;100617.81;;;2.83;100.00
44934;BME280;30667;43.614;1.442;2023-01-28T07:03:01;100615.16;;;2.83;100.00
44934;BME280;30667;43.614;1.442;2023-01-28T07:05:26;100623.38;;;2.81;100.00
44934;BME280;30667;43.614;1.442;2023-01-28T07:07:52;100627.06;;;2.80;100.00
44934;BME280;30667;43.614;1.442;2023-01-28T07:10:17;100634.06;;;2.81;100.00
44934;BME280;30667;43.614;1.442;2023-01-28T07:12:43;100635.09;;;2.80;100.00
44934;BME280;30667;43.614;1.442;2023-01-28T07:15:09;100637.75;;;2.80;100.00
44934;BME280;30667;43.614;1.442;2023-01-28T07:17:38;100643.09;;;2.80;100.00
44934;BME280;30667;43.614;1.442;2023-01-28T07:20:04;100639.41;;;2.81;100.00
44934;BME280;30667;43.614;1.442;2023-01-28T07:22:30;100647.44;;;2.81;100.00
44934;BME280;30667;43.614;1.442;2023-01-28T07:24:55;100654.81;;;2.79;100.00
44934;BME280;30667;43.614;1.442;2023-01-28T07:27:22;100652.78;;;2.81;100.00
44934;BME280;30667;43.614;1.442;2023-01-28T07:29:48;100650.09;;;2.81;100.00
44934;BME280;30667;43.614;1.442;2023-01-28T07:32:13;100652.56;;;2.83;100.00
44934;BME280;30667;43.614;1.442;2023-01-28T07:34:38;100660.78;;;2.81;100.00
44934;BME280;30667;43.614;1.442;2023-01-28T07:37:07;100666.94;;;2.82;100.00
44934;BME280;30667;43.614;1.442;2023-01-28T07:39:32;100680.53;;;2.80;100.00
44934;BME280;30667;43.614;1.442;2023-01-28T07:41:59;100678.66;;;2.81;100.00
44934;BME280;30667;43.614;1.442;2023-01-28T07:44:24;100683.78;;;2.82;100.00
44934;BME280;30667;43.614;1.442;2023-01-28T07:46:49;100686.06;;;2.79;100.00
44934;BME280;30667;43.614;1.442;2023-01-28T07:49:15;100682.38;;;2.80;100.00
44934;BME280;30667;43.614;1.442;2023-01-28T07:51:40;100694.50;;;2.82;100.00
44934;BME280;30667;43.614;1.442;2023-01-28T07:54:05;100692.03;;;2.81;100.00
44934;BME280;30667;43.614;1.442;2023-01-28T07:56:31;100693.88;;;2.80;100.00
44934;BME280;30667;43.614;1.442;2023-01-28T07:58:56;100682.19;;;2.81;100.00
44934;BME280;30667;43.614;1.442;2023-01-28T08:01:22;100693.47;;;2.83;100.00
44934;BME280;30667;43.614;1.442;2023-01-28T08:03:47;100691.81;;;2.82;100.00
44934;BME280;30667;43.614;1.442;2023-01-28T08:06:13;100696.75;;;2.85;100.00
44934;BME280;30667;43.614;1.442;2023-01-28T08:08:38;100708.28;;;2.86;100.00
44934;BME280;30667;43.614;1.442;2023-01-28T08:11:08;100709.69;;;2.88;100.00
44934;BME280;30667;43.614;1.442;2023-01-28T08:13:33;100714.81;;;2.90;100.00
44934;BME280;30667;43.614;1.442;2023-01-28T08:15:59;100715.88;;;2.89;100.00
44934;BME280;30667;43.614;1.442;2023-01-28T08:18:25;100709.47;;;2.90;100.00
44934;BME280;30667;43.614;1.442;2023-01-28T08:20:54;100717.28;;;2.91;100.00
44934;BME280;30667;43.614;1.442;2023-01-28T08:23:20;100717.28;;;2.91;100.00
44934;BME280;30667;43.614;1.442;2023-01-28T08:25:46;100710.31;;;2.90;100.00
44934;BME280;30667;43.614;1.442;2023-01-28T08:28:13;100709.47;;;2.90;100.00
44934;BME280;30667;43.614;1.442;2023-01-28T08:30:39;100723.47;;;2.92;100.00
44934;BME280;30667;43.614;1.442;2023-01-28T08:33:07;100724.09;;;2.94;100.00
44934;BME280;30667;43.614;1.442;2023-01-28T08:35:33;100723.28;;;2.94;100.00
44934;BME280;30667;43.614;1.442;2023-01-28T08:38:00;100723.47;;;2.92;100.00
44934;BME280;30667;43.614;1.442;2023-01-28T08:40:26;100724.91;;;2.95;100.00
44934;BME280;30667;43.614;1.442;2023-01-28T08:42:53;100724.09;;;2.94;100.00
44934;BME280;30667;43.614;1.442;2023-01-28T08:45:20;100730.25;;;2.95;100.00
44934;BME280;30667;43.614;1.442;2023-01-28T08:48:03;100730.84;;;2.97;100.00
44934;BME280;30667;43.614;1.442;2023-01-28T08:50:33;100732.50;;;2.98;100.00
44934;BME280;30667;43.614;1.442;2023-01-28T08:53:02;100739.50;;;2.99;100.00
44934;BME280;30667;43.614;1.442;2023-01-28T08:55:28;100739.91;;;2.96;100.00
44934;BME280;30667;43.614;1.442;2023-01-28T08:57:54;100740.50;;;2.98;100.00
44934;BME280;30667;43.614;1.442;2023-01-28T09:00:20;100744.00;;;2.98;100.00
44934;BME280;30667;43.614;1.442;2023-01-28T09:02:46;100745.06;;;2.97;100.00
44934;BME280;30667;43.614;1.442;2023-01-28T09:05:14;100747.31;;;3.00;100.00
44934;BME280;30667;43.614;1.442;2023-01-28T09:07:40;100751.81;;;3.00;100.00
44934;BME280;30667;43.614;1.442;2023-01-28T09:10:06;100749.13;;;3.00;100.00
44934;BME280;30667;43.614;1.442;2023-01-28T09:12:31;100751.59;;;3.01;100.00
44934;BME280;30667;43.614;1.442;2023-01-28T09:14:57;100758.41;;;3.04;100.00
44934;BME280;30667;43.614;1.442;2023-01-28T09:17:22;100761.66;;;3.06;100.00
44934;BME280;30667;43.614;1.442;2023-01-28T09:19:48;100767.22;;;3.04;100.00
44934;BME280;30667;43.614;1.442;2023-01-28T09:22:14;100776.28;;;3.03;100.00
44934;BME280;30667;43.614;1.442;2023-01-28T09:24:40;100773.84;;;3.02;100.00
44934;BME280;30667;43.614;1.442;2023-01-28T09:27:05;100760.25;;;3.03;100.00
44934;BME280;30667;43.614;1.442;2023-01-28T09:29:33;100771.34;;;3.07;100.00
44934;BME280;30667;43.614;1.442;2023-01-28T09:31:58;100762.31;;;3.08;100.00
44934;BME280;30667;43.614;1.442;2023-01-28T09:34:24;100765.78;;;3.08;100.00
44934;BME280;30667;43.614;1.442;2023-01-28T09:36:49;100772.16;;;3.07;100.00
44934;BME280;30667;43.614;1.442;2023-01-28T09:39:14;100785.09;;;3.11;100.00
44934;BME280;30667;43.614;1.442;2023-01-28T09:47:16;100773.81;;;3.08;100.00
44934;BME280;30667;43.614;1.442;2023-01-28T09:49:47;100776.28;;;3.10;100.00
44934;BME280;30667;43.614;1.442;2023-01-28T09:52:16;100785.91;;;3.11;100.00
44934;BME280;30667;43.614;1.442;2023-01-28T09:54:47;100780.56;;;3.11;100.00
44934;BME280;30667;43.614;1.442;2023-01-28T10:00:17;100774.22;;;3.12;100.00
44934;BME280;30667;43.614;1.442;2023-01-28T10:02:54;100767.41;;;3.16;100.00
44934;BME280;30667;43.614;1.442;2023-01-28T10:10:49;100768.00;;;3.25;100.00
44934;BME280;30667;43.614;1.442;2023-01-28T10:16:08;100776.19;;;3.30;100.00
44934;BME280;30667;43.614;1.442;2023-01-28T10:18:44;100771.06;;;3.28;100.00
44934;BME280;30667;43.614;1.442;2023-01-28T10:21:41;100777.25;;;3.29;100.00
44934;BME280;30667;43.614;1.442;2023-01-28T10:24:24;100776.22;;;3.37;100.00
44934;BME280;30667;43.614;1.442;2023-01-28T10:26:52;100772.66;;;3.43;100.00
44934;BME280;30667;43.614;1.442;2023-01-28T10:29:22;100775.53;;;3.48;100.00
44934;BME280;30667;43.614;1.442;2023-01-28T10:34:16;100774.91;;;3.46;100.00
44934;BME280;30667;43.614;1.442;2023-01-28T10:36:42;100780.69;;;3.50;100.00
44934;BME280;30667;43.614;1.442;2023-01-28T10:39:15;100776.16;;;3.50;100.00
44934;BME280;30667;43.614;1.442;2023-01-28T10:41:42;100785.41;;;3.48;100.00
44934;BME280;30667;43.614;1.442;2023-01-28T10:44:15;100778.00;;;3.43;100.00
44934;BME280;30667;43.614;1.442;2023-01-28T10:46:44;100777.81;;;3.44;100.00
44934;BME280;30667;43.614;1.442;2023-01-28T10:49:18;100776.78;;;3.45;100.00
44934;BME280;30667;43.614;1.442;2023-01-28T10:51:47;100780.47;;;3.44;100.00
44934;BME280;30667;43.614;1.442;2023-01-28T10:56:48;100779.88;;;3.42;100.00
44934;BME280;30667;43.614;1.442;2023-01-28T10:59:27;100786.03;;;3.43;100.00
44934;BME280;30667;43.614;1.442;2023-01-28T11:01:58;100784.00;;;3.45;100.00
44934;BME280;30667;43.614;1.442;2023-01-28T11:04:30;100791.19;;;3.51;100.00
44934;BME280;30667;43.614;1.442;2023-01-28T11:07:03;100788.72;;;3.50;100.00
44934;BME280;30667;43.614;1.442;2023-01-28T11:09:31;100787.66;;;3.51;100.00
44934;BME280;30667;43.614;1.442;2023-01-28T11:12:08;100779.44;;;3.52;100.00
44934;BME280;30667;43.614;1.442;2023-01-28T11:14:34;100774.91;;;3.53;100.00
44934;BME280;30667;43.614;1.442;2023-01-28T11:16:59;100775.13;;;3.51;100.00
44934;BME280;30667;43.614;1.442;2023-01-28T11:19:33;100771.00;;;3.49;100.00
44934;BME280;30667;43.614;1.442;2023-01-28T11:21:59;100769.78;;;3.44;100.00
44934;BME280;30667;43.614;1.442;2023-01-28T11:24:28;100755.59;;;3.44;100.00
44934;BME280;30667;43.614;1.442;2023-01-28T11:26:57;100763.63;;;3.44;100.00
44934;BME280;30667;43.614;1.442;2023-01-28T11:29:27;100756.19;;;3.46;100.00
44934;BME280;30667;43.614;1.442;2023-01-28T11:31:55;100762.56;;;3.52;100.00
44934;BME280;30667;43.614;1.442;2023-01-28T11:34:26;100754.31;;;3.53;100.00
44934;BME280;30667;43.614;1.442;2023-01-28T11:36:54;100759.88;;;3.52;100.00
44934;BME280;30667;43.614;1.442;2023-01-28T11:39:26;100756.81;;;3.48;100.00
44934;BME280;30667;43.614;1.442;2023-01-28T11:41:54;100750.19;;;3.51;100.00
44934;BME280;30667;43.614;1.442;2023-01-28T11:44:27;100754.91;;;3.55;100.00
44934;BME280;30667;43.614;1.442;2023-01-28T11:49:55;100749.81;;;3.47;100.00
44934;BME280;30667;43.614;1.442;2023-01-28T12:06:38;100726.34;;;3.56;100.00
44934;BME280;30667;43.614;1.442;2023-01-28T12:09:22;100721.97;;;3.61;100.00
44934;BME280;30667;43.614;1.442;2023-01-28T12:38:43;100687.38;;;3.60;100.00
44934;BME280;30667;43.614;1.442;2023-01-28T12:41:17;100676.91;;;3.58;100.00
44934;BME280;30667;43.614;1.442;2023-01-28T12:44:03;100677.50;;;3.60;100.00
44934;BME280;30667;43.614;1.442;2023-01-28T12:49:20;100679.97;;;3.62;100.00
44934;BME280;30667;43.614;1.442;2023-01-28T12:54:26;100677.06;;;3.63;100.00
44934;BME280;30667;43.614;1.442;2023-01-28T12:56:55;100679.97;;;3.62;100.00
44934;BME280;30667;43.614;1.442;2023-01-28T13:02:05;100671.38;;;3.53;100.00
44934;BME280;30667;43.614;1.442;2023-01-28T13:05:03;100669.94;;;3.51;100.00
44934;BME280;30667;43.614;1.442;2023-01-28T13:07:48;100670.56;;;3.53;100.00
44934;BME280;30667;43.614;1.442;2023-01-28T13:10:51;100658.22;;;3.52;100.00
44934;BME280;30667;43.614;1.442;2023-01-28T13:13:28;100663.56;;;3.52;100.00
44934;BME280;30667;43.614;1.442;2023-01-28T13:15:54;100669.94;;;3.51;100.00
44934;BME280;30667;43.614;1.442;2023-01-28T13:21:03;100660.69;;;3.53;100.00
44934;BME280;30667;43.614;1.442;2023-01-28T13:25:56;100664.38;;;3.52;100.00
44934;BME280;30667;43.614;1.442;2023-01-28T13:28:33;100658.81;;;3.54;100.00
44934;BME280;30667;43.614;1.442;2023-01-28T13:31:08;100654.31;;;3.48;100.00
44934;BME280;30667;43.614;1.442;2023-01-28T13:33:40;100656.78;;;3.49;100.00
44934;BME280;30667;43.614;1.442;2023-01-28T13:38:37;100665.22;;;3.46;100.00
44934;BME280;30667;43.614;1.442;2023-01-28T13:41:03;100674.69;;;3.49;100.00
44934;BME280;30667;43.614;1.442;2023-01-28T13:46:02;100676.34;;;3.50;100.00
44934;BME280;30667;43.614;1.442;2023-01-28T13:50:58;100678.81;;;3.51;100.00
44934;BME280;30667;43.614;1.442;2023-01-28T13:56:06;100680.00;;;3.55;100.00
44934;BME280;30667;43.614;1.442;2023-01-28T13:58:43;100686.19;;;3.56;100.00
44934;BME280;30667;43.614;1.442;2023-01-28T14:01:30;100689.69;;;3.56;100.00
44934;BME280;30667;43.614;1.442;2023-01-28T14:04:04;100688.63;;;3.57;100.00
44934;BME280;30667;43.614;1.442;2023-01-28T14:06:55;100695.03;;;3.56;100.00
44934;BME280;30667;43.614;1.442;2023-01-28T14:09:45;100691.34;;;3.51;100.00
44934;BME280;30667;43.614;1.442;2023-01-28T14:17:53;100698.34;;;3.52;100.00
44934;BME280;30667;43.614;1.442;2023-01-28T14:20:29;100700.22;;;3.51;100.00
44934;BME280;30667;43.614;1.442;2023-01-28T14:23:00;100698.78;;;3.49;100.00
44934;BME280;30667;43.614;1.442;2023-01-28T14:28:54;100701.63;;;3.54;100.00
44934;BME280;30667;43.614;1.442;2023-01-28T14:31:26;100709.06;;;3.52;100.00
44934;BME280;30667;43.614;1.442;2023-01-28T14:36:29;100714.22;;;3.47;100.00
44934;BME280;30667;43.614;1.442;2023-01-28T14:38:55;100715.44;;;3.51;100.00
44934;BME280;30667;43.614;1.442;2023-01-28T14:41:26;100715.84;;;3.48;100.00
44934;BME280;30667;43.614;1.442;2023-01-28T14:43:54;100719.38;;;3.48;100.00
44934;BME280;30667;43.614;1.442;2023-01-28T14:52:25;100719.56;;;3.47;100.00
44934;BME280;30667;43.614;1.442;2023-01-28T14:57:40;100725.53;;;3.49;100.00
44934;BME280;30667;43.614;1.442;2023-01-28T15:00:35;100718.72;;;3.46;100.00
44934;BME280;30667;43.614;1.442;2023-01-28T15:03:16;100739.72;;;3.49;100.00
44934;BME280;30667;43.614;1.442;2023-01-28T15:05:42;100740.97;;;3.47;100.00
44934;BME280;30667;43.614;1.442;2023-01-28T15:08:07;100743.66;;;3.47;100.00
44934;BME280;30667;43.614;1.442;2023-01-28T15:10:36;100747.75;;;3.49;100.00
44934;BME280;30667;43.614;1.442;2023-01-28T15:13:20;100737.03;;;3.49;100.00